sensor_id;sensor_type;location;lat;lon;timestamp;pressure;altitude;pressure_sealevel;temperature;humidity
48035;BME280;33812;46.480;6.834;2022-09-13T00:03:31;93532.47;;;23.14;44.37
48035;BME280;33812;46.480;6.834;2022-09-13T00:07:34;93538.06;;;23.24;44.56
48035;BME280;33812;46.480;6.834;2022-09-13T00:11:37;93523.59;;;23.29;44.52
48035;BME280;33812;46.480;6.834;2022-09-13T00:15:42;93528.81;;;23.27;44.62
48035;BME280;33812;46.480;6.834;2022-09-13T00:19:45;93537.28;;;23.23;43.88
48035;BME280;33812;46.480;6.834;2022-09-13T00:23:51;93540.97;;;23.20;44.30
48035;BME280;33812;46.480;6.834;2022-09-13T00:27:54;93537.28;;;23.23;44.26
48035;BME280;33812;46.480;6.834;2022-09-13T00:31:55;93532.94;;;23.22;44.37
48035;BME280;33812;46.480;6.834;2022-09-13T00:35:57;93537.75;;;23.22;44.18
48035;BME280;33812;46.480;6.834;2022-09-13T00:40:02;93542.97;;;23.19;44.16
48035;BME280;33812;46.480;6.834;2022-09-13T00:44:04;93548.19;;;23.17;43.98
48035;BME280;33812;46.480;6.834;2022-09-13T00:48:26;93541.88;;;23.17;43.42
48035;BME280;33812;46.480;6.834;2022-09-13T00:52:30;93548.97;;;23.18;44.17
48035;BME280;33812;46.480;6.834;2022-09-13T00:56:36;93551.41;;;23.16;43.85
48035;BME280;33812;46.480;6.834;2022-09-13T01:00:39;93553.72;;;23.17;43.80
48035;BME280;33812;46.480;6.834;2022-09-13T01:04:42;93553.41;;;23.15;44.04
48035;BME280;33812;46.480;6.834;2022-09-13T01:08:47;93546.63;;;23.07;43.99
48035;BME280;33812;46.480;6.834;2022-09-13T01:12:54;93548.47;;;23.10;44.04
48035;BME280;33812;46.480;6.834;2022-09-13T01:16:57;93530.94;;;23.13;44.17
48035;BME280;33812;46.480;6.834;2022-09-13T01:30:18;93521.09;;;23.22;43.71
48035;BME280;33812;46.480;6.834;2022-09-13T01:34:27;93517.09;;;23.23;44.10
48035;BME280;33812;46.480;6.834;2022-09-13T01:38:48;93514.47;;;23.19;43.44
48035;BME280;33812;46.480;6.834;2022-09-13T01:43:06;93498.94;;;23.22;44.05
48035;BME280;33812;46.480;6.834;2022-09-13T01:47:23;93506.94;;;23.19;43.62
48035;BME280;33812;46.480;6.834;2022-09-13T01:51:30;93513.25;;;23.20;43.86
48035;BME280;33812;46.480;6.834;2022-09-13T01:55:38;93504.94;;;23.20;43.62
48035;BME280;33812;46.480;6.834;2022-09-13T01:59:47;93507.38;;;23.18;43.59
48035;BME280;33812;46.480;6.834;2022-09-13T02:03:54;93495.06;;;23.19;43.55
48035;BME280;33812;46.480;6.834;2022-09-13T02:08:02;93489.66;;;23.15;43.29
48035;BME280;33812;46.480;6.834;2022-09-13T02:12:10;93488.75;;;23.18;43.06
48035;BME280;33812;46.480;6.834;2022-09-13T02:16:17;93511.22;;;23.11;43.19
48035;BME280;33812;46.480;6.834;2022-09-13T02:20:27;93511.84;;;23.15;43.08
48035;BME280;33812;46.480;6.834;2022-09-13T02:24:31;93511.22;;;23.11;43.13
48035;BME280;33812;46.480;6.834;2022-09-13T02:28:36;93511.22;;;23.11;43.09
48035;BME280;33812;46.480;6.834;2022-09-13T02:32:41;93511.09;;;23.15;43.26
48035;BME280;33812;46.480;6.834;2022-09-13T02:36:45;93516.00;;;23.11;43.37
48035;BME280;33812;46.480;6.834;2022-09-13T02:40:54;93510.13;;;23.09;43.06
48035;BME280;33812;46.480;6.834;2022-09-13T02:44:58;93503.50;;;23.06;43.22
48035;BME280;33812;46.480;6.834;2022-09-13T02:49:07;93499.81;;;23.09;43.03
48035;BME280;33812;46.480;6.834;2022-09-13T02:53:22;93486.41;;;23.17;43.14
48035;BME280;33812;46.480;6.834;2022-09-13T02:57:29;93491.06;;;23.20;43.04
48035;BME280;33812;46.480;6.834;2022-09-13T03:01:34;93492.44;;;23.15;43.11
48035;BME280;33812;46.480;6.834;2022-09-13T03:05:36;93497.38;;;23.11;42.66
48035;BME280;33812;46.480;6.834;2022-09-13T03:09:45;93482.41;;;23.09;42.86
48035;BME280;33812;46.480;6.834;2022-09-13T03:14:05;93471.78;;;23.07;43.07
48035;BME280;33812;46.480;6.834;2022-09-13T03:18:18;93460.38;;;23.05;43.22
48035;BME280;33812;46.480;6.834;2022-09-13T03:22:37;93462.69;;;23.06;42.50
48035;BME280;33812;46.480;6.834;2022-09-13T03:26:53;93471.00;;;23.06;42.63
48035;BME280;33812;46.480;6.834;2022-09-13T03:31:03;93474.56;;;23.07;42.65
48035;BME280;33812;46.480;6.834;2022-09-13T03:35:11;93485.19;;;23.09;42.57
48035;BME280;33812;46.480;6.834;2022-09-13T03:39:25;93475.34;;;23.08;42.45
48035;BME280;33812;46.480;6.834;2022-09-13T03:43:38;93475.47;;;23.04;41.88
48035;BME280;33812;46.480;6.834;2022-09-13T03:47:44;93475.75;;;22.97;41.99
48035;BME280;33812;46.480;6.834;2022-09-13T03:51:48;93479.31;;;22.97;42.41
48035;BME280;33812;46.480;6.834;2022-09-13T03:55:52;93485.47;;;23.01;42.02
48035;BME280;33812;46.480;6.834;2022-09-13T03:59:56;93490.25;;;23.01;42.58
48035;BME280;33812;46.480;6.834;2022-09-13T04:03:58;93501.63;;;23.03;42.20
48035;BME280;33812;46.480;6.834;2022-09-13T04:08:00;93495.78;;;23.01;41.62
48035;BME280;33812;46.480;6.834;2022-09-13T04:12:02;93514.09;;;22.98;41.43
48035;BME280;33812;46.480;6.834;2022-09-13T04:16:06;93510.25;;;22.96;40.68
48035;BME280;33812;46.480;6.834;2022-09-13T04:20:08;93482.41;;;22.99;41.78
48035;BME280;33812;46.480;6.834;2022-09-13T04:24:10;93465.59;;;23.03;42.07
48035;BME280;33812;46.480;6.834;2022-09-13T04:28:12;93446.66;;;23.01;41.89
48035;BME280;33812;46.480;6.834;2022-09-13T04:32:16;93444.66;;;23.02;41.75
48035;BME280;33812;46.480;6.834;2022-09-13T04:36:17;93453.91;;;22.99;41.10
48035;BME280;33812;46.480;6.834;2022-09-13T04:40:20;93452.97;;;23.02;41.62
48035;BME280;33812;46.480;6.834;2022-09-13T04:44:23;93452.66;;;23.00;41.41
48035;BME280;33812;46.480;6.834;2022-09-13T04:48:26;93449.91;;;23.00;41.64
48035;BME280;33812;46.480;6.834;2022-09-13T04:52:28;93442.34;;;23.00;41.30
48035;BME280;33812;46.480;6.834;2022-09-13T04:56:30;93446.66;;;23.01;40.97
48035;BME280;33812;46.480;6.834;2022-09-13T05:00:32;93454.69;;;22.99;39.98
48035;BME280;33812;46.480;6.834;2022-09-13T05:04:36;93438.50;;;22.98;39.89
48035;BME280;33812;46.480;6.834;2022-09-13T05:08:38;93449.75;;;22.94;39.55
48035;BME280;33812;46.480;6.834;2022-09-13T05:12:40;93447.88;;;22.91;39.45
48035;BME280;33812;46.480;6.834;2022-09-13T05:16:42;93449.25;;;22.86;39.28
48035;BME280;33812;46.480;6.834;2022-09-13T05:20:45;93447.25;;;22.87;39.28
48035;BME280;33812;46.480;6.834;2022-09-13T05:24:48;93453.59;;;22.97;39.22
48035;BME280;33812;46.480;6.834;2022-09-13T05:28:50;93455.13;;;22.98;39.49
48035;BME280;33812;46.480;6.834;2022-09-13T05:32:51;93457.88;;;22.98;39.81
48035;BME280;33812;46.480;6.834;2022-09-13T05:36:55;93446.50;;;22.96;39.50
48035;BME280;33812;46.480;6.834;2022-09-13T05:40:57;93447.59;;;22.98;40.02
48035;BME280;33812;46.480;6.834;2022-09-13T05:44:59;93450.34;;;22.98;39.80
48035;BME280;33812;46.480;6.834;2022-09-13T05:49:02;93442.38;;;23.10;39.64
48035;BME280;33812;46.480;6.834;2022-09-13T05:53:05;93436.84;;;23.10;38.65
48035;BME280;33812;46.480;6.834;2022-09-13T05:57:07;93433.91;;;23.04;37.81
48035;BME280;33812;46.480;6.834;2022-09-13T06:01:10;93439.44;;;23.04;38.16
48035;BME280;33812;46.480;6.834;2022-09-13T06:05:12;93447.75;;;23.04;38.30
48035;BME280;33812;46.480;6.834;2022-09-13T06:09:15;93443.44;;;23.03;37.91
48035;BME280;33812;46.480;6.834;2022-09-13T06:13:18;93438.06;;;23.09;38.27
48035;BME280;33812;46.480;6.834;2022-09-13T06:17:19;93443.13;;;23.10;38.15
48035;BME280;33812;46.480;6.834;2022-09-13T06:21:22;93434.53;;;23.08;38.58
48035;BME280;33812;46.480;6.834;2022-09-13T06:25:25;93422.50;;;23.02;38.58
48035;BME280;33812;46.480;6.834;2022-09-13T06:29:27;93425.75;;;23.10;38.28
48035;BME280;33812;46.480;6.834;2022-09-13T06:33:28;93410.94;;;23.03;38.75
48035;BME280;33812;46.480;6.834;2022-09-13T06:37:30;93412.78;;;23.06;38.57
48035;BME280;33812;46.480;6.834;2022-09-13T06:41:34;93407.41;;;23.03;38.17
48035;BME280;33812;46.480;6.834;2022-09-13T06:45:36;93395.88;;;23.04;38.09
48035;BME280;33812;46.480;6.834;2022-09-13T06:49:38;93403.09;;;23.02;38.25
48035;BME280;33812;46.480;6.834;2022-09-13T06:53:40;93396.78;;;23.01;38.08
48035;BME280;33812;46.480;6.834;2022-09-13T06:57:43;93395.25;;;23.00;37.79
48035;BME280;33812;46.480;6.834;2022-09-13T07:01:45;93392.94;;;22.99;38.14
48035;BME280;33812;46.480;6.834;2022-09-13T07:05:47;93406.34;;;23.00;38.53
48035;BME280;33812;46.480;6.834;2022-09-13T07:09:49;93405.56;;;23.00;38.56
48035;BME280;33812;46.480;6.834;2022-09-13T07:13:53;93406.16;;;22.94;38.03
48035;BME280;33812;46.480;6.834;2022-09-13T07:17:55;93421.88;;;22.98;37.84
48035;BME280;33812;46.480;6.834;2022-09-13T07:21:57;93426.19;;;22.99;37.40
48035;BME280;33812;46.480;6.834;2022-09-13T07:26:00;93429.44;;;22.97;37.04
48035;BME280;33812;46.480;6.834;2022-09-13T07:30:07;93434.03;;;23.00;35.90
48035;BME280;33812;46.480;6.834;2022-09-13T07:34:12;93442.81;;;22.99;37.24
48035;BME280;33812;46.480;6.834;2022-09-13T07:38:16;93442.69;;;23.02;36.67
48035;BME280;33812;46.480;6.834;2022-09-13T07:42:18;93443.44;;;23.03;37.54
48035;BME280;33812;46.480;6.834;2022-09-13T07:46:22;93447.75;;;23.04;43.65
48035;BME280;33812;46.480;6.834;2022-09-13T07:50:24;93445.91;;;23.01;44.99
48035;BME280;33812;46.480;6.834;2022-09-13T07:54:26;93447.88;;;22.91;47.98
48035;BME280;33812;46.480;6.834;2022-09-13T07:58:29;93442.94;;;22.86;50.19
48035;BME280;33812;46.480;6.834;2022-09-13T08:02:36;93453.50;;;22.68;49.14
48035;BME280;33812;46.480;6.834;2022-09-13T08:06:49;93459.41;;;22.57;48.07
48035;BME280;33812;46.480;6.834;2022-09-13T08:10:51;93454.03;;;22.54;49.39
48035;BME280;33812;46.480;6.834;2022-09-13T08:14:55;93459.25;;;22.52;49.51
48035;BME280;33812;46.480;6.834;2022-09-13T08:19:04;93452.16;;;22.51;50.06
48035;BME280;33812;46.480;6.834;2022-09-13T08:23:10;93457.69;;;22.51;49.81
48035;BME280;33812;46.480;6.834;2022-09-13T08:27:12;93445.41;;;22.52;49.85
48035;BME280;33812;46.480;6.834;2022-09-13T08:31:20;93449.72;;;22.53;50.23
48035;BME280;33812;46.480;6.834;2022-09-13T08:35:29;93435.88;;;22.53;50.24
48035;BME280;33812;46.480;6.834;2022-09-13T08:39:32;93444.50;;;22.55;50.23
48035;BME280;33812;46.480;6.834;2022-09-13T08:43:42;93438.03;;;22.58;49.87
48035;BME280;33812;46.480;6.834;2022-09-13T08:47:52;93430.50;;;22.58;50.12
48035;BME280;33812;46.480;6.834;2022-09-13T08:52:04;93436.50;;;22.57;50.48
48035;BME280;33812;46.480;6.834;2022-09-13T08:56:18;93429.41;;;22.56;50.44
48035;BME280;33812;46.480;6.834;2022-09-13T09:00:25;93434.81;;;22.59;50.77
48035;BME280;33812;46.480;6.834;2022-09-13T09:04:35;93430.97;;;22.57;50.93
48035;BME280;33812;46.480;6.834;2022-09-13T09:08:46;93432.41;;;22.62;51.06
48035;BME280;33812;46.480;6.834;2022-09-13T09:12:53;93417.75;;;22.61;50.67
48035;BME280;33812;46.480;6.834;2022-09-13T09:17:00;93413.00;;;22.62;50.59
48035;BME280;33812;46.480;6.834;2022-09-13T09:21:06;93410.41;;;22.67;50.94
48035;BME280;33812;46.480;6.834;2022-09-13T09:25:14;93404.88;;;22.67;51.73
48035;BME280;33812;46.480;6.834;2022-09-13T09:29:17;93414.72;;;22.68;52.00
48035;BME280;33812;46.480;6.834;2022-09-13T09:33:33;93404.41;;;22.69;52.32
48035;BME280;33812;46.480;6.834;2022-09-13T09:37:41;93416.28;;;22.69;51.82
48035;BME280;33812;46.480;6.834;2022-09-13T09:41:49;93410.56;;;22.73;51.78
48035;BME280;33812;46.480;6.834;2022-09-13T09:45:51;93407.03;;;22.73;52.36
48035;BME280;33812;46.480;6.834;2022-09-13T09:49:56;93401.03;;;22.74;52.74
48035;BME280;33812;46.480;6.834;2022-09-13T09:54:11;93394.72;;;22.74;52.83
48035;BME280;33812;46.480;6.834;2022-09-13T09:58:15;93382.44;;;22.75;53.14
48035;BME280;33812;46.480;6.834;2022-09-13T10:02:18;93381.03;;;22.79;52.46
48035;BME280;33812;46.480;6.834;2022-09-13T10:06:24;93377.19;;;22.77;52.69
48035;BME280;33812;46.480;6.834;2022-09-13T10:10:35;93379.50;;;22.78;52.91
48035;BME280;33812;46.480;6.834;2022-09-13T10:14:41;93379.06;;;22.80;52.86
48035;BME280;33812;46.480;6.834;2022-09-13T10:18:45;93382.13;;;22.82;52.95
48035;BME280;33812;46.480;6.834;2022-09-13T10:23:09;93373.19;;;22.78;52.26
48035;BME280;33812;46.480;6.834;2022-09-13T10:27:20;93384.28;;;22.78;51.98
48035;BME280;33812;46.480;6.834;2022-09-13T10:31:32;93384.75;;;22.76;49.82
48035;BME280;33812;46.480;6.834;2022-09-13T10:35:46;93382.72;;;22.77;49.99
48035;BME280;33812;46.480;6.834;2022-09-13T10:39:54;93379.19;;;22.76;51.03
48035;BME280;33812;46.480;6.834;2022-09-13T10:44:05;93371.63;;;22.77;50.62
48035;BME280;33812;46.480;6.834;2022-09-13T10:48:18;93380.72;;;22.77;50.94
48035;BME280;33812;46.480;6.834;2022-09-13T10:52:29;93381.66;;;22.74;49.98
48035;BME280;33812;46.480;6.834;2022-09-13T10:56:33;93380.41;;;22.75;50.37
48035;BME280;33812;46.480;6.834;2022-09-13T11:05:31;93371.22;;;22.88;51.21
48035;BME280;33812;46.480;6.834;2022-09-13T11:09:50;93366.75;;;22.90;50.07
48035;BME280;33812;46.480;6.834;2022-09-13T11:14:20;93350.75;;;22.85;50.66
48035;BME280;33812;46.480;6.834;2022-09-13T11:19:05;93359.19;;;22.91;49.73
48035;BME280;33812;46.480;6.834;2022-09-13T11:23:30;93364.00;;;22.90;50.37
48035;BME280;33812;46.480;6.834;2022-09-13T11:27:49;93370.13;;;22.94;51.45
48035;BME280;33812;46.480;6.834;2022-09-13T11:32:07;93374.28;;;22.90;51.34
48035;BME280;33812;46.480;6.834;2022-09-13T11:36:25;93370.00;;;22.89;51.12
48035;BME280;33812;46.480;6.834;2022-09-13T11:40:45;93378.31;;;22.89;51.22
48035;BME280;33812;46.480;6.834;2022-09-13T11:45:14;93383.06;;;22.88;50.39
48035;BME280;33812;46.480;6.834;2022-09-13T11:49:31;93380.63;;;22.90;48.98
48035;BME280;33812;46.480;6.834;2022-09-13T11:53:50;93387.22;;;22.93;48.81
48035;BME280;33812;46.480;6.834;2022-09-13T11:57:59;93401.84;;;22.93;47.43
48035;BME280;33812;46.480;6.834;2022-09-13T12:02:08;93401.41;;;22.95;46.41
48035;BME280;33812;46.480;6.834;2022-09-13T12:06:18;93398.47;;;22.99;47.01
48035;BME280;33812;46.480;6.834;2022-09-13T12:10:33;93377.53;;;22.98;48.02
48035;BME280;33812;46.480;6.834;2022-09-13T12:14:44;93375.38;;;23.02;47.94
48035;BME280;33812;46.480;6.834;2022-09-13T12:18:51;93366.00;;;22.99;47.27
48035;BME280;33812;46.480;6.834;2022-09-13T12:23:00;93375.38;;;23.02;46.88
48035;BME280;33812;46.480;6.834;2022-09-13T12:27:06;93359.22;;;23.00;47.02
48035;BME280;33812;46.480;6.834;2022-09-13T12:31:16;93344.91;;;23.02;47.11
48035;BME280;33812;46.480;6.834;2022-09-13T12:35:24;93336.91;;;23.04;46.95
48035;BME280;33812;46.480;6.834;2022-09-13T12:39:39;93334.13;;;23.04;46.93
48035;BME280;33812;46.480;6.834;2022-09-13T12:43:59;93326.13;;;23.06;47.62
48035;BME280;33812;46.480;6.834;2022-09-13T12:48:26;93334.91;;;23.04;47.14
48035;BME280;33812;46.480;6.834;2022-09-13T12:52:34;93340.72;;;23.06;47.72
48035;BME280;33812;46.480;6.834;2022-09-13T12:56:48;93326.13;;;23.06;47.79
48035;BME280;33812;46.480;6.834;2022-09-13T13:01:05;93322.13;;;23.07;48.20
48035;BME280;33812;46.480;6.834;2022-09-13T13:05:19;93326.13;;;23.06;48.50
48035;BME280;33812;46.480;6.834;2022-09-13T13:09:28;93329.22;;;23.08;48.89
48035;BME280;33812;46.480;6.834;2022-09-13T13:13:36;93335.50;;;23.09;48.86
48035;BME280;33812;46.480;6.834;2022-09-13T13:17:45;93336.28;;;23.09;49.20
48035;BME280;33812;46.480;6.834;2022-09-13T13:21:49;93331.53;;;23.10;49.60
48035;BME280;33812;46.480;6.834;2022-09-13T13:26:11;93325.97;;;23.10;49.16
48035;BME280;33812;46.480;6.834;2022-09-13T13:30:33;93333.03;;;23.11;49.31
48035;BME280;33812;46.480;6.834;2022-09-13T13:34:43;93314.41;;;23.11;49.01
48035;BME280;33812;46.480;6.834;2022-09-13T13:38:47;93328.28;;;23.11;49.20
48035;BME280;33812;46.480;6.834;2022-09-13T13:42:49;93327.03;;;23.12;49.13
48035;BME280;33812;46.480;6.834;2022-09-13T13:46:53;93309.94;;;23.14;49.61
48035;BME280;33812;46.480;6.834;2022-09-13T13:51:17;93301.63;;;23.14;49.51
48035;BME280;33812;46.480;6.834;2022-09-13T13:55:30;93301.16;;;23.15;49.72
48035;BME280;33812;46.480;6.834;2022-09-13T13:59:38;93300.41;;;23.15;49.88
48035;BME280;33812;46.480;6.834;2022-09-13T14:03:49;93292.84;;;23.15;50.35
48035;BME280;33812;46.480;6.834;2022-09-13T14:08:07;93290.06;;;23.15;50.51
48035;BME280;33812;46.480;6.834;2022-09-13T14:12:31;93287.63;;;23.17;50.11
48035;BME280;33812;46.480;6.834;2022-09-13T14:16:46;93288.41;;;23.18;50.40
48035;BME280;33812;46.480;6.834;2022-09-13T14:21:02;93284.84;;;23.17;50.42
48035;BME280;33812;46.480;6.834;2022-09-13T14:25:20;93283.91;;;23.21;50.32
48035;BME280;33812;46.480;6.834;2022-09-13T14:29:25;93276.06;;;23.19;49.97
48035;BME280;33812;46.480;6.834;2022-09-13T14:33:31;93280.84;;;23.18;50.32
48035;BME280;33812;46.480;6.834;2022-09-13T14:37:36;93270.50;;;23.19;50.08
48035;BME280;33812;46.480;6.834;2022-09-13T14:41:39;93261.44;;;23.18;50.32
48035;BME280;33812;46.480;6.834;2022-09-13T14:45:44;93264.22;;;23.18;49.55
48035;BME280;33812;46.480;6.834;2022-09-13T14:49:50;93273.28;;;23.19;49.66
48035;BME280;33812;46.480;6.834;2022-09-13T14:53:58;93262.97;;;23.19;49.69
48035;BME280;33812;46.480;6.834;2022-09-13T14:58:03;93267.28;;;23.21;49.53
48035;BME280;33812;46.480;6.834;2022-09-13T15:02:17;93255.91;;;23.18;49.89
48035;BME280;33812;46.480;6.834;2022-09-13T15:06:24;93247.88;;;23.21;50.10
48035;BME280;33812;46.480;6.834;2022-09-13T15:10:28;93257.28;;;23.23;50.02
48035;BME280;33812;46.480;6.834;2022-09-13T15:14:33;93241.84;;;23.22;49.87
48035;BME280;33812;46.480;6.834;2022-09-13T15:18:38;93242.63;;;23.23;50.22
48035;BME280;33812;46.480;6.834;2022-09-13T15:22:41;93238.34;;;23.22;50.29
48035;BME280;33812;46.480;6.834;2022-09-13T15:26:43;93224.47;;;23.22;50.03
48035;BME280;33812;46.480;6.834;2022-09-13T15:30:45;93215.69;;;23.23;50.38
48035;BME280;33812;46.480;6.834;2022-09-13T15:34:49;93208.16;;;23.24;50.35
48035;BME280;33812;46.480;6.834;2022-09-13T15:38:59;93199.84;;;23.24;49.92
48035;BME280;33812;46.480;6.834;2022-09-13T15:43:01;93202.88;;;23.26;49.94
48035;BME280;33812;46.480;6.834;2022-09-13T15:47:08;93206.91;;;23.25;50.16
48035;BME280;33812;46.480;6.834;2022-09-13T15:51:12;93198.59;;;23.25;50.25
48035;BME280;33812;46.480;6.834;2022-09-13T15:55:15;93201.38;;;23.25;50.28
48035;BME280;33812;46.480;6.834;2022-09-13T15:59:19;93201.38;;;23.25;50.02
48035;BME280;33812;46.480;6.834;2022-09-13T16:03:21;93200.13;;;23.26;50.19
48035;BME280;33812;46.480;6.834;2022-09-13T16:07:25;93205.66;;;23.26;50.43
48035;BME280;33812;46.480;6.834;2022-09-13T16:11:27;93211.22;;;23.26;49.98
48035;BME280;33812;46.480;6.834;2022-09-13T16:15:30;93211.97;;;23.26;49.72
48035;BME280;33812;46.480;6.834;2022-09-13T16:19:32;93207.22;;;23.27;50.18
48035;BME280;33812;46.480;6.834;2022-09-13T16:23:35;93206.44;;;23.26;50.04
48035;BME280;33812;46.480;6.834;2022-09-13T16:27:37;93206.44;;;23.26;50.44
48035;BME280;33812;46.480;6.834;2022-09-13T16:31:40;93209.22;;;23.26;50.06
48035;BME280;33812;46.480;6.834;2022-09-13T16:35:42;93206.44;;;23.26;49.93
48035;BME280;33812;46.480;6.834;2022-09-13T16:39:46;93192.56;;;23.26;49.58
48035;BME280;33812;46.480;6.834;2022-09-13T16:43:47;93196.13;;;23.27;49.80
48035;BME280;33812;46.480;6.834;2022-09-13T16:47:49;93200.91;;;23.26;49.79
48035;BME280;33812;46.480;6.834;2022-09-13T16:51:51;93196.88;;;23.27;49.64
48035;BME280;33812;46.480;6.834;2022-09-13T16:56:03;93193.66;;;23.29;49.27
48035;BME280;33812;46.480;6.834;2022-09-13T17:00:06;93189.34;;;23.28;49.41
48035;BME280;33812;46.480;6.834;2022-09-13T17:04:10;93184.09;;;23.30;49.04
48035;BME280;33812;46.480;6.834;2022-09-13T17:08:12;93181.63;;;23.32;49.57
48035;BME280;33812;46.480;6.834;2022-09-13T17:12:17;93185.34;;;23.29;49.07
48035;BME280;33812;46.480;6.834;2022-09-13T17:16:24;93188.41;;;23.31;49.18
48035;BME280;33812;46.480;6.834;2022-09-13T17:20:27;93187.19;;;23.32;49.16
48035;BME280;33812;46.480;6.834;2022-09-13T17:24:29;93186.41;;;23.31;49.76
48035;BME280;33812;46.480;6.834;2022-09-13T17:28:33;93181.16;;;23.34;49.49
48035;BME280;33812;46.480;6.834;2022-09-13T17:32:35;93179.91;;;23.35;50.21
48035;BME280;33812;46.480;6.834;2022-09-13T17:36:49;93179.91;;;23.35;49.17
48035;BME280;33812;46.480;6.834;2022-09-13T17:41:03;93169.00;;;23.31;49.57
48035;BME280;33812;46.480;6.834;2022-09-13T17:45:09;93171.75;;;23.31;49.08
48035;BME280;33812;46.480;6.834;2022-09-13T17:49:12;93171.75;;;23.31;49.51
48035;BME280;33812;46.480;6.834;2022-09-13T17:53:14;93169.00;;;23.31;49.32
48035;BME280;33812;46.480;6.834;2022-09-13T17:57:16;93157.91;;;23.31;50.04
48035;BME280;33812;46.480;6.834;2022-09-13T18:01:20;93153.91;;;23.32;49.76
48035;BME280;33812;46.480;6.834;2022-09-13T18:05:23;93157.47;;;23.33;50.00
48035;BME280;33812;46.480;6.834;2022-09-13T18:09:24;93142.81;;;23.32;50.09
48035;BME280;33812;46.480;6.834;2022-09-13T18:13:26;93142.81;;;23.32;50.23
48035;BME280;33812;46.480;6.834;2022-09-13T18:17:29;93155.44;;;23.33;50.02
48035;BME280;33812;46.480;6.834;2022-09-13T18:21:31;93160.97;;;23.33;49.95
48035;BME280;33812;46.480;6.834;2022-09-13T18:25:33;93162.53;;;23.34;50.05
48035;BME280;33812;46.480;6.834;2022-09-13T18:29:35;93163.28;;;23.35;50.24
48035;BME280;33812;46.480;6.834;2022-09-13T18:33:44;93184.41;;;23.32;49.56
48035;BME280;33812;46.480;6.834;2022-09-13T18:37:58;93180.69;;;23.35;49.71
48035;BME280;33812;46.480;6.834;2022-09-13T18:42:03;93174.25;;;23.29;50.75
48035;BME280;33812;46.480;6.834;2022-09-13T18:46:06;93181.00;;;23.37;50.28
48035;BME280;33812;46.480;6.834;2022-09-13T18:50:12;93179.44;;;23.36;50.50
48035;BME280;33812;46.480;6.834;2022-09-13T18:54:15;93186.84;;;23.39;50.75
48035;BME280;33812;46.480;6.834;2022-09-13T18:58:23;93186.25;;;23.35;50.69
48035;BME280;33812;46.480;6.834;2022-09-13T19:02:25;93191.63;;;23.39;50.94
48035;BME280;33812;46.480;6.834;2022-09-13T19:06:34;93199.47;;;23.40;50.97
48035;BME280;33812;46.480;6.834;2022-09-13T19:10:39;93201.03;;;23.41;51.54
48035;BME280;33812;46.480;6.834;2022-09-13T19:14:41;93203.78;;;23.41;51.58
48035;BME280;33812;46.480;6.834;2022-09-13T19:18:44;93210.56;;;23.40;51.50
48035;BME280;33812;46.480;6.834;2022-09-13T19:22:49;93212.13;;;23.41;51.69
48035;BME280;33812;46.480;6.834;2022-09-13T19:26:51;93225.97;;;23.41;51.83
48035;BME280;33812;46.480;6.834;2022-09-13T19:30:53;93231.53;;;23.41;51.43
48035;BME280;33812;46.480;6.834;2022-09-13T19:34:55;93238.63;;;23.42;52.03
48035;BME280;33812;46.480;6.834;2022-09-13T19:38:58;93245.69;;;23.43;52.15
48035;BME280;33812;46.480;6.834;2022-09-13T19:43:00;93233.38;;;23.45;52.91
48035;BME280;33812;46.480;6.834;2022-09-13T19:47:02;93238.16;;;23.44;52.08
48035;BME280;33812;46.480;6.834;2022-09-13T19:51:08;93234.59;;;23.43;52.44
48035;BME280;33812;46.480;6.834;2022-09-13T19:55:11;93242.94;;;23.43;51.98
48035;BME280;33812;46.480;6.834;2022-09-13T19:59:15;93235.38;;;23.44;52.48
48035;BME280;33812;46.480;6.834;2022-09-13T20:03:19;93236.16;;;23.45;52.83
48035;BME280;33812;46.480;6.834;2022-09-13T20:07:20;93231.38;;;23.45;52.41
48035;BME280;33812;46.480;6.834;2022-09-13T20:11:25;93220.28;;;23.45;51.70
48035;BME280;33812;46.480;6.834;2022-09-13T20:15:30;93223.81;;;23.46;51.84
48035;BME280;33812;46.480;6.834;2022-09-13T20:19:32;93221.81;;;23.46;51.80
48035;BME280;33812;46.480;6.834;2022-09-13T20:23:35;93223.81;;;23.46;51.62
48035;BME280;33812;46.480;6.834;2022-09-13T20:27:38;93223.81;;;23.46;51.78
48035;BME280;33812;46.480;6.834;2022-09-13T20:31:41;93219.81;;;23.47;51.73
48035;BME280;33812;46.480;6.834;2022-09-13T20:35:43;93221.81;;;23.46;51.68
48035;BME280;33812;46.480;6.834;2022-09-13T20:39:45;93215.03;;;23.47;51.26
48035;BME280;33812;46.480;6.834;2022-09-13T20:43:49;93211.47;;;23.47;51.66
48035;BME280;33812;46.480;6.834;2022-09-13T20:47:51;93204.41;;;23.46;51.32
48035;BME280;33812;46.480;6.834;2022-09-13T20:51:53;93203.16;;;23.47;50.81
48035;BME280;33812;46.480;6.834;2022-09-13T20:55:55;93176.69;;;23.46;51.24
48035;BME280;33812;46.480;6.834;2022-09-13T20:59:58;93179.44;;;23.46;51.03
48035;BME280;33812;46.480;6.834;2022-09-13T21:04:00;93171.13;;;23.46;51.05
48035;BME280;33812;46.480;6.834;2022-09-13T21:08:02;93174.69;;;23.46;51.24
48035;BME280;33812;46.480;6.834;2022-09-13T21:12:21;93180.22;;;23.46;50.92
48035;BME280;33812;46.480;6.834;2022-09-13T21:16:27;93168.34;;;23.46;51.62
48035;BME280;33812;46.480;6.834;2022-09-13T21:20:29;93169.88;;;23.47;51.44
48035;BME280;33812;46.480;6.834;2022-09-13T21:24:30;93158.78;;;23.47;50.94
48035;BME280;33812;46.480;6.834;2022-09-13T21:28:33;93160.81;;;23.46;51.41
48035;BME280;33812;46.480;6.834;2022-09-13T21:32:36;93156.50;;;23.45;51.27
48035;BME280;33812;46.480;6.834;2022-09-13T21:36:40;93159.56;;;23.47;51.26
48035;BME280;33812;46.480;6.834;2022-09-13T21:40:42;93153.25;;;23.47;51.11
48035;BME280;33812;46.480;6.834;2022-09-13T21:44:44;93164.34;;;23.47;51.39
48035;BME280;33812;46.480;6.834;2022-09-13T21:48:50;93177.47;;;23.46;51.28
48035;BME280;33812;46.480;6.834;2022-09-13T21:53:11;93185.78;;;23.46;50.70
48035;BME280;33812;46.480;6.834;2022-09-13T21:57:17;93188.56;;;23.46;50.72
48035;BME280;33812;46.480;6.834;2022-09-13T22:01:27;93197.63;;;23.47;50.92